Time;durP1;ratioP1;P1;durP2;ratioP2;P2;SDS_P1;SDS_P2;PMS_P1;PMS_P2;Temp;Humidity;BMP_temperature;BMP_pressure;BME280_temperature;BME280_humidity;BME280_pressure;Samples;Min_cycle;Max_cycle;Signal;HPM_P1;HPM_P2
2023/08/27 00:00:34;;;;;;;20.65;16.77;;;12.10;99.90;;;;;;4933470;29;20486;-89
2023/08/27 00:03:02;;;;;;;19.10;16.20;;;12.10;99.90;;;;;;4929963;29;20418;-90
2023/08/27 00:05:28;;;;;;;24.30;15.77;;;9.50;99.90;;;;;;4931969;29;20057;-87
2023/08/27 00:07:53;;;;;;;27.35;18.15;;;12.20;99.90;;;;;;4936124;29;20047;-89
2023/08/27 00:10:19;;;;;;;20.80;16.85;;;12.20;99.90;;;;;;4935885;28;20054;-89
2023/08/27 00:12:45;;;;;;;20.23;16.63;;;12.40;99.90;;;;;;4934684;29;20397;-89
2023/08/27 00:15:11;;;;;;;28.80;18.15;;;12.20;99.90;;;;;;4946608;29;20747;-89
2023/08/27 00:17:36;;;;;;;22.55;16.63;;;12.10;99.90;;;;;;4926808;29;20074;-88
2023/08/27 00:20:10;;;;;;;23.98;16.13;;;12.10;99.90;;;;;;4931572;29;20082;-89
2023/08/27 00:22:39;;;;;;;29.80;17.80;;;12.00;99.90;;;;;;4932583;29;20043;-89
2023/08/27 00:25:11;;;;;;;23.58;16.35;;;12.10;99.90;;;;;;4933534;28;20091;-88
2023/08/27 00:27:37;;;;;;;24.58;16.95;;;12.40;99.90;;;;;;4933043;29;20129;-88
2023/08/27 00:30:06;;;;;;;19.38;16.30;;;14.10;99.90;;;;;;4947457;28;20525;-90
2023/08/27 00:32:33;;;;;;;25.73;18.20;;;11.90;99.90;;;;;;4932590;29;20600;-87
2023/08/27 00:34:59;;;;;;;26.27;18.42;;;12.00;99.90;;;;;;4940121;28;20114;-87
2023/08/27 00:37:25;;;;;;;22.50;16.92;;;11.90;99.90;;;;;;4932147;29;20193;-88
2023/08/27 00:39:52;;;;;;;32.58;16.55;;;12.00;99.90;;;;;;4934018;29;21258;-88
2023/08/27 00:42:17;;;;;;;18.50;14.32;;;11.90;99.90;;;;;;4939186;28;20093;-89
2023/08/27 00:44:43;;;;;;;25.95;16.77;;;11.80;99.90;;;;;;4932305;28;20590;-87
2023/08/27 00:47:10;;;;;;;25.17;16.92;;;11.80;99.90;;;;;;4944691;28;20082;-88
2023/08/27 00:49:37;;;;;;;24.30;17.02;;;11.80;99.90;;;;;;4950082;28;20043;-88
2023/08/27 00:52:04;;;;;;;21.60;16.67;;;11.80;99.90;;;;;;4931941;29;20105;-88
2023/08/27 00:54:31;;;;;;;23.63;17.23;;;11.90;99.90;;;;;;4932250;29;20067;-87
2023/08/27 00:56:58;;;;;;;24.85;17.08;;;11.90;99.90;;;;;;4931359;29;20050;-89
2023/08/27 00:59:23;;;;;;;24.23;18.40;;;11.90;99.90;;;;;;4932845;28;20050;-88
2023/08/27 01:01:51;;;;;;;29.27;19.25;;;11.90;99.90;;;;;;4942790;28;20043;-87
2023/08/27 01:04:20;;;;;;;37.08;19.60;;;11.80;99.90;;;;;;4938283;28;20488;-87
2023/08/27 01:06:46;;;;;;;23.17;16.33;;;12.20;99.90;;;;;;4932081;29;20093;-88
2023/08/27 01:09:33;;;;;;;23.80;16.00;;;12.50;99.90;;;;;;4931722;29;20054;-88
2023/08/27 01:12:29;;;;;;;25.23;17.05;;;11.70;99.90;;;;;;4946958;29;20039;-89
2023/08/27 01:14:58;;;;;;;27.73;17.27;;;10.50;99.90;;;;;;4930971;29;20035;-88
2023/08/27 01:17:24;;;;;;;22.13;16.65;;;11.60;99.90;;;;;;4926492;29;20756;-88
2023/08/27 01:19:53;;;;;;;20.83;17.13;;;8.90;99.90;;;;;;4928322;29;20655;-90
2023/08/27 01:22:28;;;;;;;29.13;18.63;;;11.60;99.90;;;;;;4933103;28;20049;-89
2023/08/27 01:24:54;;;;;;;26.27;18.55;;;12.10;99.90;;;;;;4935914;28;20126;-89
2023/08/27 01:27:39;;;;;;;28.08;20.13;;;11.70;99.90;;;;;;4932623;28;20046;-87
2023/08/27 01:30:36;;;;;;;24.85;18.48;;;9.90;99.90;;;;;;4946146;28;20717;-87
2023/08/27 01:33:21;;;;;;;30.98;19.30;;;11.80;99.90;;;;;;4933051;28;20396;-88
2023/08/27 01:35:47;;;;;;;29.90;21.02;;;11.90;99.90;;;;;;4934350;28;20453;-90
2023/08/27 01:38:13;;;;;;;27.85;20.77;;;11.90;99.90;;;;;;4954216;28;20508;-88
2023/08/27 01:40:40;;;;;;;27.27;19.60;;;11.90;99.90;;;;;;4941275;28;20043;-90
2023/08/27 01:43:06;;;;;;;30.77;21.02;;;12.10;99.90;;;;;;4934444;28;20042;-90
2023/08/27 01:45:32;;;;;;;27.80;20.40;;;12.00;99.90;;;;;;4952086;28;20038;-89
2023/08/27 01:47:58;;;;;;;33.85;21.63;;;12.00;99.90;;;;;;4948327;28;20075;-89
2023/08/27 01:50:24;;;;;;;25.38;19.52;;;12.10;99.90;;;;;;4950999;28;20043;-93
2023/08/27 01:52:49;;;;;;;29.65;19.73;;;12.90;99.90;;;;;;4936460;28;20031;-87
2023/08/27 01:55:15;;;;;;;28.98;19.98;;;12.10;99.90;;;;;;4952229;28;20045;-89
2023/08/27 01:57:41;;;;;;;25.77;18.88;;;12.20;99.90;;;;;;4953814;28;20042;-86
2023/08/27 02:00:08;;;;;;;29.77;20.30;;;12.20;99.90;;;;;;4944704;28;20173;-92
2023/08/27 02:02:36;;;;;;;28.13;20.58;;;12.30;99.90;;;;;;4951240;28;20042;-89
2023/08/27 02:05:09;;;;;;;31.38;19.98;;;12.30;99.90;;;;;;4952830;28;20504;-91
2023/08/27 02:07:39;;;;;;;31.20;19.40;;;12.50;99.90;;;;;;4969176;28;20400;-92
2023/08/27 02:10:06;;;;;;;29.65;21.10;;;12.30;99.90;;;;;;4950847;28;20140;-87
2023/08/27 02:12:35;;;;;;;29.58;20.58;;;12.30;99.90;;;;;;4936112;28;20050;-89
2023/08/27 02:15:06;;;;;;;30.35;20.90;;;12.30;99.90;;;;;;4952337;28;20517;-92
2023/08/27 02:17:32;;;;;;;27.50;21.40;;;12.30;99.90;;;;;;4952458;28;20054;-87
2023/08/27 02:19:58;;;;;;;26.45;20.02;;;12.30;99.90;;;;;;4958283;28;20045;-90
2023/08/27 02:22:24;;;;;;;26.38;20.30;;;12.40;99.90;;;;;;4937892;28;20039;-87
2023/08/27 02:24:50;;;;;;;28.02;20.33;;;12.30;99.90;;;;;;4934086;28;20050;-86
2023/08/27 02:27:16;;;;;;;25.50;19.85;;;12.30;99.90;;;;;;4932788;28;20500;-89
2023/08/27 02:29:42;;;;;;;26.48;20.60;;;12.20;99.90;;;;;;4953867;28;20105;-88
2023/08/27 02:32:08;;;;;;;26.00;20.90;;;12.20;99.90;;;;;;4945350;28;20378;-88
2023/08/27 02:34:34;;;;;;;26.60;19.50;;;12.20;99.90;;;;;;4934132;28;20041;-88
2023/08/27 02:36:59;;;;;;;28.00;21.67;;;12.20;99.90;;;;;;4948161;28;20065;-86
2023/08/27 02:39:25;;;;;;;26.42;19.80;;;12.20;99.90;;;;;;4934496;28;20315;-88
2023/08/27 02:41:51;;;;;;;34.08;21.73;;;12.10;99.90;;;;;;4951431;28;20046;-88
2023/08/27 02:44:19;;;;;;;33.85;22.17;;;12.10;99.90;;;;;;4951435;28;21153;-88
2023/08/27 02:46:45;;;;;;;31.35;22.13;;;12.10;99.90;;;;;;4949258;28;20153;-86
2023/08/27 02:49:13;;;;;;;32.70;22.90;;;12.10;99.90;;;;;;4955661;28;20181;-85
2023/08/27 02:51:39;;;;;;;31.33;22.63;;;12.00;99.90;;;;;;4953044;28;20117;-87
2023/08/27 02:54:05;;;;;;;29.15;21.38;;;12.00;99.90;;;;;;4933834;28;20124;-86
2023/08/27 02:56:31;;;;;;;33.47;22.52;;;12.00;99.90;;;;;;4965095;28;20113;-88
2023/08/27 02:58:57;;;;;;;29.20;23.27;;;11.90;99.90;;;;;;4938938;28;20043;-86
2023/08/27 03:01:22;;;;;;;30.75;23.02;;;10.00;99.90;;;;;;4941452;28;20049;-87
2023/08/27 03:03:51;;;;;;;30.90;22.80;;;11.90;99.90;;;;;;4955133;28;20053;-89
2023/08/27 03:06:18;;;;;;;29.83;22.23;;;11.80;99.90;;;;;;4940356;28;20085;-87
2023/08/27 03:08:43;;;;;;;36.08;22.95;;;11.80;99.90;;;;;;4953624;28;20054;-86
2023/08/27 03:11:09;;;;;;;31.27;23.77;;;11.80;99.90;;;;;;4936262;28;20043;-85
2023/08/27 03:13:36;;;;;;;36.00;24.02;;;11.80;99.90;;;;;;4952912;28;20043;-85
2023/08/27 03:16:01;;;;;;;33.28;23.15;;;11.80;99.90;;;;;;4949706;28;20051;-85
2023/08/27 03:18:29;;;;;;;33.00;22.92;;;11.80;99.90;;;;;;4936907;28;20077;-86
2023/08/27 03:20:57;;;;;;;30.85;22.25;;;11.70;99.90;;;;;;4938023;28;20039;-89
2023/08/27 03:23:30;;;;;;;31.17;22.27;;;11.70;99.90;;;;;;4951992;28;20038;-87
2023/08/27 03:25:58;;;;;;;30.83;22.52;;;11.90;99.90;;;;;;4957020;28;20050;-90
2023/08/27 03:28:24;;;;;;;38.33;23.75;;;11.90;99.90;;;;;;4941762;28;20649;-88
2023/08/27 03:30:50;;;;;;;32.45;23.10;;;11.90;99.90;;;;;;4952836;28;20057;-87
2023/08/27 03:33:16;;;;;;;29.85;22.98;;;11.70;99.90;;;;;;4935427;28;20039;-86
2023/08/27 03:35:56;;;;;;;31.30;22.65;;;11.70;99.90;;;;;;4950446;28;20098;-86
2023/08/27 03:38:22;;;;;;;33.97;24.73;;;11.70;99.90;;;;;;4928781;28;20050;-87
2023/08/27 03:40:52;;;;;;;38.10;25.00;;;12.30;99.90;;;;;;4934850;28;20047;-86
2023/08/27 03:43:18;;;;;;;33.28;23.20;;;11.60;99.90;;;;;;4958535;28;20057;-86
2023/08/27 03:45:44;;;;;;;42.00;24.83;;;13.20;99.90;;;;;;4932660;28;20047;-85
2023/08/27 03:48:10;;;;;;;38.70;24.27;;;11.60;99.90;;;;;;4957557;28;20122;-86
2023/08/27 03:50:36;;;;;;;33.47;23.48;;;11.60;99.90;;;;;;4939261;28;20160;-86
2023/08/27 03:53:05;;;;;;;34.50;23.83;;;11.60;99.90;;;;;;4950123;28;20043;-86
2023/08/27 03:55:36;;;;;;;32.90;23.48;;;13.50;99.90;;;;;;4939784;28;20049;-86
2023/08/27 03:58:02;;;;;;;36.67;24.60;;;11.60;99.90;;;;;;4941570;28;20050;-85
2023/08/27 04:00:28;;;;;;;38.63;24.30;;;11.60;99.90;;;;;;4956180;28;20046;-86
2023/08/27 04:02:54;;;;;;;35.55;23.92;;;11.70;99.90;;;;;;4949810;28;20106;-85
2023/08/27 04:05:19;;;;;;;35.35;24.55;;;11.70;99.90;;;;;;4962739;28;20046;-86
2023/08/27 04:07:45;;;;;;;32.05;23.80;;;11.70;99.90;;;;;;4949504;28;20712;-85
2023/08/27 04:10:11;;;;;;;35.83;24.48;;;13.60;99.90;;;;;;4934579;28;20129;-87
2023/08/27 04:12:36;;;;;;;30.83;22.23;;;13.50;99.90;;;;;;4963045;28;20088;-86
2023/08/27 04:15:02;;;;;;;28.70;22.10;;;11.80;99.90;;;;;;4937961;28;20051;-86
2023/08/27 04:17:29;;;;;;;31.30;22.80;;;11.80;99.90;;;;;;4948167;28;20050;-89
2023/08/27 04:19:55;;;;;;;33.78;23.27;;;11.80;99.90;;;;;;4956567;28;20047;-87
2023/08/27 04:22:21;;;;;;;35.05;22.92;;;11.80;99.90;;;;;;4955156;28;20492;-88
2023/08/27 04:24:47;;;;;;;36.92;23.20;;;11.80;99.90;;;;;;4938683;28;20101;-87
2023/08/27 04:27:13;;;;;;;25.67;20.85;;;11.80;99.90;;;;;;4952440;28;20181;-87
2023/08/27 04:29:38;;;;;;;30.00;22.90;;;11.80;99.90;;;;;;4952147;28;20053;-88
2023/08/27 04:32:04;;;;;;;33.15;22.35;;;11.80;99.90;;;;;;4956409;28;20050;-88
2023/08/27 04:34:30;;;;;;;32.65;23.23;;;11.80;99.90;;;;;;4936945;28;20049;-86
2023/08/27 04:36:56;;;;;;;27.25;21.50;;;11.80;99.90;;;;;;4948406;28;20851;-89
2023/08/27 04:39:22;;;;;;;27.83;22.02;;;11.80;99.90;;;;;;4946555;28;20051;-86
2023/08/27 04:41:48;;;;;;;28.08;20.48;;;11.80;99.90;;;;;;4951989;28;20093;-86
2023/08/27 04:44:14;;;;;;;29.38;22.02;;;11.80;99.90;;;;;;4951963;28;20042;-86
2023/08/27 04:46:40;;;;;;;31.88;23.00;;;11.80;99.90;;;;;;4944953;28;20054;-85
2023/08/27 04:49:06;;;;;;;32.20;21.48;;;11.90;99.90;;;;;;4951214;28;20045;-89
2023/08/27 04:51:31;;;;;;;27.73;21.50;;;11.90;99.90;;;;;;4949512;28;20579;-85
2023/08/27 04:53:57;;;;;;;26.45;20.83;;;11.90;99.90;;;;;;4933319;28;20047;-85
2023/08/27 04:56:23;;;;;;;28.27;21.08;;;12.00;99.90;;;;;;4940330;28;20101;-85
2023/08/27 04:58:49;;;;;;;25.67;20.75;;;12.30;99.90;;;;;;4949633;28;20455;-86
2023/08/27 05:01:15;;;;;;;32.60;20.65;;;12.00;99.90;;;;;;4950629;28;20069;-87
2023/08/27 05:03:40;;;;;;;30.15;21.65;;;12.00;99.90;;;;;;4951048;28;20039;-86
2023/08/27 05:06:06;;;;;;;24.00;20.23;;;12.10;99.90;;;;;;4934841;28;20039;-87
2023/08/27 05:08:33;;;;;;;28.65;21.65;;;12.10;99.90;;;;;;4948150;28;20039;-86
2023/08/27 05:10:59;;;;;;;23.67;19.48;;;12.20;99.90;;;;;;4933575;28;20754;-86
2023/08/27 05:13:34;;;;;;;27.10;19.27;;;11.50;99.90;;;;;;4948690;28;20046;-86
2023/08/27 05:15:59;;;;;;;23.33;17.90;;;12.30;99.90;;;;;;4931684;28;20077;-86
2023/08/27 05:18:25;;;;;;;26.05;19.75;;;12.30;99.90;;;;;;4926050;29;20455;-86
2023/08/27 05:20:51;;;;;;;24.02;17.23;;;12.30;99.90;;;;;;4937393;28;20528;-87
2023/08/27 05:23:17;;;;;;;22.92;17.52;;;12.40;99.90;;;;;;4951409;28;20046;-87
2023/08/27 05:25:46;;;;;;;24.63;17.13;;;12.50;99.90;;;;;;4934101;28;20112;-86
2023/08/27 05:28:11;;;;;;;22.92;17.88;;;12.60;99.90;;;;;;4934465;28;20043;-87
2023/08/27 05:30:37;;;;;;;23.67;17.65;;;12.60;99.90;;;;;;4934856;28;20054;-87
2023/08/27 05:33:03;;;;;;;20.70;15.65;;;12.70;99.90;;;;;;4958737;28;20098;-86
2023/08/27 05:35:29;;;;;;;19.40;15.68;;;12.80;99.90;;;;;;4952288;28;20042;-88
2023/08/27 05:37:55;;;;;;;20.85;16.58;;;12.80;99.90;;;;;;4936671;28;20061;-87
2023/08/27 05:40:24;;;;;;;20.38;16.25;;;12.90;99.90;;;;;;4953008;28;20051;-88
2023/08/27 05:42:50;;;;;;;18.13;16.00;;;13.50;99.90;;;;;;4938088;28;20239;-89
2023/08/27 05:45:17;;;;;;;23.05;16.55;;;13.20;99.90;;;;;;4953685;28;20045;-89
2023/08/27 05:48:11;;;;;;;21.08;16.35;;;13.30;99.90;;;;;;4923047;29;20043;-89
2023/08/27 05:50:38;;;;;;;18.73;15.60;;;13.70;99.90;;;;;;4924408;28;20504;-90
2023/08/27 05:53:14;;;;;;;20.40;14.88;;;13.80;99.90;;;;;;4938704;28;20551;-89
2023/08/27 05:55:39;;;;;;;21.42;15.23;;;14.40;99.90;;;;;;4953454;28;20039;-88
2023/08/27 06:07:11;;;;;;;;;;;;;;;;;;;;;
2023/08/27 06:18:07;;;;;;;;;;;;;;;;;;;;;
2023/08/27 06:29:41;;;;;;;13.38;10.98;;;14.00;99.90;;;;;;4723151;30;20418;-90
2023/08/27 06:32:36;;;;;;;13.13;10.52;;;15.00;99.90;;;;;;4724832;30;20122;-90
2023/08/27 06:35:11;;;;;;;12.60;11.32;;;14.30;99.90;;;;;;4767470;29;20060;-89
2023/08/27 06:37:37;;;;;;;12.77;10.65;;;14.40;99.90;;;;;;4838293;29;20056;-88
2023/08/27 06:40:03;;;;;;;10.43;9.32;;;14.30;99.90;;;;;;4859656;29;20052;-87
2023/08/27 06:42:29;;;;;;;11.63;10.05;;;14.20;99.90;;;;;;4879470;29;20075;-86
2023/08/27 06:44:54;;;;;;;10.70;9.60;;;14.20;99.90;;;;;;4892126;29;20056;-86
2023/08/27 06:47:20;;;;;;;12.00;9.23;;;14.20;99.90;;;;;;4878293;29;20064;-85
2023/08/27 06:49:47;;;;;;;10.65;9.52;;;14.10;99.90;;;;;;4893427;29;20131;-85
2023/08/27 06:52:13;;;;;;;12.13;8.70;;;14.10;99.90;;;;;;4870755;29;20048;-83
2023/08/27 06:54:38;;;;;;;10.20;8.82;;;14.00;99.90;;;;;;4888827;29;20228;-85
2023/08/27 06:57:04;;;;;;;11.80;8.07;;;13.90;99.90;;;;;;4872970;29;20056;-83
2023/08/27 06:59:30;;;;;;;15.82;9.52;;;13.80;99.90;;;;;;4888791;29;20119;-83
2023/08/27 07:01:56;;;;;;;11.73;8.90;;;13.80;99.90;;;;;;4876646;29;20600;-84
2023/08/27 07:04:22;;;;;;;10.73;8.80;;;13.80;99.90;;;;;;4922182;29;20129;-86
2023/08/27 07:06:48;;;;;;;15.85;9.68;;;13.70;99.90;;;;;;4914030;29;20166;-87
2023/08/27 07:09:14;;;;;;;14.77;9.32;;;13.60;99.90;;;;;;4929547;29;20126;-87
2023/08/27 07:11:40;;;;;;;10.57;8.73;;;13.60;99.90;;;;;;4921769;29;20461;-93
2023/08/27 07:14:06;;;;;;;10.55;7.10;;;13.60;99.90;;;;;;4916309;29;20035;-85
2023/08/27 07:16:31;;;;;;;12.27;7.18;;;13.60;99.90;;;;;;4929458;29;20133;-84
2023/08/27 07:18:57;;;;;;;8.50;6.30;;;13.50;99.90;;;;;;4931547;28;20244;-88
2023/08/27 07:21:23;;;;;;;11.68;7.40;;;13.50;99.90;;;;;;4919506;29;20043;-85
2023/08/27 07:23:49;;;;;;;8.15;6.97;;;13.60;99.90;;;;;;4915365;29;20107;-82
2023/08/27 07:26:14;;;;;;;13.10;7.43;;;13.50;99.90;;;;;;4933068;28;20109;-86
2023/08/27 07:28:40;;;;;;;10.38;7.07;;;13.50;99.90;;;;;;4908477;29;20054;-86
2023/08/27 07:31:06;;;;;;;8.68;6.70;;;13.50;99.90;;;;;;4936348;29;20047;-85
2023/08/27 07:33:34;;;;;;;10.50;7.57;;;13.60;99.90;;;;;;4933413;28;20066;-83
2023/08/27 07:35:59;;;;;;;8.13;6.75;;;13.50;99.90;;;;;;4919284;28;20043;-82
2023/08/27 07:38:26;;;;;;;8.77;6.90;;;13.50;99.90;;;;;;4923559;28;20045;-83
2023/08/27 07:40:52;;;;;;;8.98;6.85;;;13.60;99.90;;;;;;4925121;28;20296;-85
2023/08/27 07:43:18;;;;;;;9.60;6.03;;;13.60;99.90;;;;;;4912451;29;20507;-82
2023/08/27 07:45:44;;;;;;;11.05;6.40;;;13.70;99.90;;;;;;4916267;28;20043;-83
2023/08/27 07:48:09;;;;;;;7.82;5.80;;;13.80;99.90;;;;;;4910581;29;20067;-82
2023/08/27 07:50:35;;;;;;;9.73;5.00;;;13.90;99.90;;;;;;4922739;28;20177;-84
2023/08/27 07:53:01;;;;;;;6.88;4.68;;;12.20;99.90;;;;;;4927934;29;20067;-82
2023/08/27 07:55:31;;;;;;;6.53;4.30;;;14.30;99.90;;;;;;4918485;28;20090;-83
2023/08/27 07:58:00;;;;;;;4.78;4.10;;;14.60;99.90;;;;;;4921308;29;20575;-83
2023/08/27 08:00:25;;;;;;;8.02;3.97;;;15.00;99.90;;;;;;4936991;28;20046;-83
2023/08/27 08:02:51;;;;;;;4.60;4.07;;;15.50;99.90;;;;;;4929835;28;20117;-87
2023/08/27 08:05:17;;;;;;;4.63;3.05;;;16.40;99.90;;;;;;4916750;28;20497;-85
2023/08/27 08:07:43;;;;;;;4.13;2.70;;;17.30;99.90;;;;;;4919090;28;20047;-86
2023/08/27 08:10:08;;;;;;;7.18;2.40;;;18.10;99.90;;;;;;4921425;28;20054;-84
2023/08/27 08:12:35;;;;;;;4.38;2.00;;;18.80;99.90;;;;;;4914807;28;20047;-87
2023/08/27 08:15:01;;;;;;;3.58;1.60;;;19.10;99.90;;;;;;4930433;28;20034;-85
2023/08/27 08:17:26;;;;;;;2.83;1.65;;;19.70;99.90;;;;;;4928177;29;20054;-89
2023/08/27 08:19:52;;;;;;;8.50;2.20;;;20.40;99.90;;;;;;4928399;28;20731;-86
2023/08/27 08:22:18;;;;;;;3.78;1.10;;;21.40;99.90;;;;;;4923219;28;20106;-88
2023/08/27 08:24:46;;;;;;;2.08;0.50;;;22.80;99.90;;;;;;4918052;28;20054;-86
2023/08/27 08:27:12;;;;;;;2.35;0.65;;;23.30;99.90;;;;;;4914511;29;20050;-91
2023/08/27 08:29:38;;;;;;;3.25;0.70;;;24.10;99.90;;;;;;4931096;28;20047;-88
2023/08/27 08:32:04;;;;;;;3.22;0.50;;;24.70;99.90;;;;;;4921272;28;20047;-88
2023/08/27 08:34:30;;;;;;;1.88;0.50;;;25.30;99.90;;;;;;4930845;28;20054;-92
2023/08/27 08:36:56;;;;;;;2.70;0.50;;;25.90;99.90;;;;;;4936508;28;20109;-90
2023/08/27 08:39:25;;;;;;;1.77;0.47;;;26.30;99.90;;;;;;4936797;28;20046;-90
2023/08/27 08:42:20;;;;;;;1.20;0.47;;;26.70;99.90;;;;;;4933708;28;20047;-87
2023/08/27 08:44:54;;;;;;;2.90;0.50;;;27.00;98.00;;;;;;4949022;28;20070;-92
2023/08/27 08:47:24;;;;;;;1.95;0.60;;;27.30;98.30;;;;;;4942294;28;20046;-89
2023/08/27 08:49:57;;;;;;;1.88;0.52;;;27.50;97.30;;;;;;4937152;28;20034;-87
2023/08/27 08:52:27;;;;;;;2.05;0.50;;;27.80;96.80;;;;;;4935255;28;20181;-91
2023/08/27 08:54:54;;;;;;;1.17;0.52;;;28.10;96.00;;;;;;4935517;28;20039;-90
2023/08/27 08:57:25;;;;;;;2.40;0.80;;;28.30;95.30;;;;;;4949027;28;20039;-88
2023/08/27 08:59:53;;;;;;;3.55;0.75;;;28.40;94.70;;;;;;4937418;28;20731;-93
2023/08/27 09:02:19;;;;;;;2.03;0.73;;;28.50;94.70;;;;;;4960909;28;20663;-95
2023/08/27 09:04:45;;;;;;;2.35;0.70;;;28.60;93.30;;;;;;4938428;28;20109;-93
2023/08/27 09:07:13;;;;;;;2.13;0.50;;;28.60;92.60;;;;;;4937699;28;20382;-93
2023/08/27 09:09:40;;;;;;;2.38;0.57;;;25.90;91.50;;;;;;4936530;28;20085;-86
2023/08/27 09:12:08;;;;;;;3.13;0.70;;;28.40;92.00;;;;;;4935878;28;20043;-88
2023/08/27 09:14:36;;;;;;;3.60;0.73;;;28.20;91.50;;;;;;4935101;28;20031;-88
2023/08/27 09:17:04;;;;;;;1.50;0.65;;;28.10;91.50;;;;;;4948760;28;20055;-90
2023/08/27 09:19:39;;;;;;;2.03;0.70;;;28.20;91.80;;;;;;4933038;28;20042;-86
2023/08/27 09:22:05;;;;;;;3.20;0.70;;;27.70;91.50;;;;;;4929217;28;20042;-89
2023/08/27 09:24:33;;;;;;;2.70;0.63;;;29.60;91.20;;;;;;4937735;28;20047;-88
2023/08/27 09:27:03;;;;;;;3.03;0.60;;;28.20;90.70;;;;;;4936803;28;20046;-87
2023/08/27 09:29:31;;;;;;;3.47;0.70;;;28.00;91.00;;;;;;4942249;28;20038;-85
2023/08/27 09:31:57;;;;;;;1.60;0.60;;;28.10;90.30;;;;;;4936884;28;20066;-86
2023/08/27 09:34:23;;;;;;;3.97;0.60;;;28.10;90.70;;;;;;4952082;28;20062;-87
2023/08/27 09:36:49;;;;;;;1.70;0.50;;;28.20;90.60;;;;;;4947998;28;20046;-88
2023/08/27 09:39:15;;;;;;;2.33;0.80;;;28.30;91.40;;;;;;4938239;28;20102;-90
2023/08/27 09:41:45;;;;;;;2.22;0.52;;;28.30;90.50;;;;;;4936497;28;20054;-88
2023/08/27 09:44:12;;;;;;;2.58;0.57;;;28.40;88.40;;;;;;4940687;28;20047;-89
2023/08/27 09:46:38;;;;;;;2.85;0.73;;;28.60;89.10;;;;;;4937500;28;20061;-92
2023/08/27 09:49:06;;;;;;;2.72;0.60;;;28.60;86.70;;;;;;4953525;28;20046;-95
2023/08/27 09:51:39;;;;;;;1.95;0.43;;;28.70;85.00;;;;;;4938245;28;20343;-94
2023/08/27 09:54:22;;;;;;;1.20;0.40;;;28.80;84.30;;;;;;4947627;28;20050;-93
2023/08/27 09:56:51;;;;;;;4.13;0.55;;;28.90;86.90;;;;;;4952776;29;20062;-95
2023/08/27 09:59:18;;;;;;;3.70;0.63;;;27.60;82.60;;;;;;4939907;28;20045;-96
2023/08/27 10:01:51;;;;;;;2.25;0.75;;;28.50;84.30;;;;;;4939840;28;20035;-95
2023/08/27 10:04:18;;;;;;;3.03;0.50;;;27.50;83.40;;;;;;4940253;28;20047;-96
2023/08/27 10:06:51;;;;;;;2.03;0.90;;;27.60;86.70;;;;;;4941798;28;20039;-95
2023/08/27 10:09:20;;;;;;;2.47;0.55;;;27.50;85.80;;;;;;4943455;28;20034;-96
2023/08/27 10:11:56;;;;;;;2.90;0.52;;;27.60;87.80;;;;;;4944654;28;20042;-96
2023/08/27 10:14:25;;;;;;;1.67;0.60;;;27.80;89.00;;;;;;4960370;28;20105;-94
2023/08/27 10:16:56;;;;;;;2.97;0.68;;;28.10;88.00;;;;;;4943507;28;20051;-96
2023/08/27 10:19:22;;;;;;;3.42;0.73;;;28.40;88.80;;;;;;4942888;28;20047;-91
2023/08/27 10:21:55;;;;;;;1.85;0.70;;;28.50;86.00;;;;;;4941637;28;20101;-92
2023/08/27 10:24:25;;;;;;;2.90;0.90;;;28.30;83.80;;;;;;4942946;28;20130;-96
2023/08/27 10:26:56;;;;;;;3.50;1.38;;;28.30;82.40;;;;;;4943789;28;20074;-92
2023/08/27 10:29:27;;;;;;;1.67;0.80;;;24.90;81.60;;;;;;4942801;28;20050;-92
2023/08/27 10:31:58;;;;;;;3.25;0.70;;;27.40;84.30;;;;;;4944688;28;20073;-90
2023/08/27 10:34:32;;;;;;;;;;;27.40;84.20;;;;;;4942360;28;20054;-94
2023/08/27 10:37:06;;;;;;;2.25;0.73;;;25.30;83.60;;;;;;4943515;28;19965;-94
2023/08/27 10:39:33;;;;;;;2.22;0.52;;;27.20;85.30;;;;;;4942960;28;20050;-92
2023/08/27 10:41:59;;;;;;;1.77;0.50;;;27.60;82.50;;;;;;4942943;28;20481;-90
2023/08/27 10:44:27;;;;;;;3.45;0.40;;;27.30;83.40;;;;;;4942793;28;20038;-89
2023/08/27 10:47:11;;;;;;;1.65;0.68;;;27.20;83.00;;;;;;4942535;28;20505;-93
2023/08/27 10:49:38;;;;;;;3.67;0.68;;;27.30;80.70;;;;;;4943801;28;20150;-90
2023/08/27 10:52:14;;;;;;;2.10;0.82;;;26.90;80.70;;;;;;4942545;28;20043;-89
2023/08/27 10:54:40;;;;;;;2.55;0.63;;;26.60;81.70;;;;;;4941606;28;20090;-95
2023/08/27 10:57:21;;;;;;;2.60;0.50;;;26.20;81.80;;;;;;4942633;28;20042;-96
2023/08/27 10:59:47;;;;;;;3.43;0.60;;;25.80;82.00;;;;;;4941722;28;20046;-91
2023/08/27 11:02:15;;;;;;;5.32;0.65;;;25.50;82.50;;;;;;4942585;28;20081;-96
2023/08/27 11:04:43;;;;;;;1.90;0.45;;;23.80;83.60;;;;;;4944098;28;20113;-94
2023/08/27 11:07:17;;;;;;;2.33;0.50;;;24.80;83.70;;;;;;4942332;28;20073;-92
2023/08/27 11:09:52;;;;;;;2.50;0.57;;;24.10;83.40;;;;;;4941669;29;20054;-95
2023/08/27 11:12:41;;;;;;;3.67;0.50;;;24.40;85.20;;;;;;4937262;28;20054;-96
2023/08/27 11:15:12;;;;;;;2.17;0.43;;;27.10;90.50;;;;;;4941573;28;20746;-91
2023/08/27 11:17:40;;;;;;;5.70;1.05;;;24.30;84.20;;;;;;4929119;29;20110;-90
2023/08/27 11:20:23;;;;;;;3.13;0.30;;;24.30;85.00;;;;;;4935069;28;20043;-88
2023/08/27 11:22:58;;;;;;;4.97;0.52;;;24.20;85.80;;;;;;4958346;28;20118;-96
2023/08/27 11:25:28;;;;;;;1.65;0.50;;;24.10;85.90;;;;;;4942817;28;20072;-92
2023/08/27 11:27:58;;;;;;;4.70;1.00;;;23.70;86.20;;;;;;4966510;28;20048;-95
2023/08/27 11:30:25;;;;;;;8.57;0.95;;;23.50;87.90;;;;;;4938304;28;20390;-85
2023/08/27 11:32:51;;;;;;;13.90;1.90;;;23.10;90.20;;;;;;4932380;28;20043;-86
2023/08/27 11:35:25;;;;;;;5.70;1.30;;;22.60;91.30;;;;;;4952212;28;20046;-86
2023/08/27 11:37:52;;;;;;;5.03;0.70;;;21.80;92.30;;;;;;4938255;28;20047;-89
2023/08/27 11:40:19;;;;;;;4.13;0.80;;;20.50;93.60;;;;;;4938443;28;20043;-87
2023/08/27 11:42:53;;;;;;;5.25;0.70;;;19.40;95.20;;;;;;4931323;28;20047;-84
2023/08/27 11:45:39;;;;;;;3.72;0.80;;;18.50;97.70;;;;;;4928677;28;20050;-84
2023/08/27 11:48:06;;;;;;;3.60;0.40;;;18.00;99.00;;;;;;4926716;28;20058;-84
2023/08/27 11:50:33;;;;;;;3.03;0.50;;;17.70;99.90;;;;;;4583967;28;10000241;-83
2023/08/27 11:52:59;;;;;;;1.98;0.50;;;17.60;99.90;;;;;;4930496;28;20039;-83
2023/08/27 11:55:25;;;;;;;2.38;0.63;;;17.70;99.90;;;;;;4940358;28;20052;-83
2023/08/27 11:57:55;;;;;;;1.40;0.30;;;17.70;99.90;;;;;;4928878;28;20042;-83
2023/08/27 12:00:21;;;;;;;1.27;0.45;;;15.10;99.90;;;;;;4924663;28;20070;-83
2023/08/27 12:02:47;;;;;;;1.13;0.30;;;17.60;99.90;;;;;;4924882;28;20134;-82
2023/08/27 12:05:13;;;;;;;2.15;0.50;;;17.60;99.90;;;;;;4925448;28;20050;-82
2023/08/27 12:07:39;;;;;;;3.70;0.57;;;20.00;99.90;;;;;;4926905;28;20453;-83
2023/08/27 12:13:40;;;;;;;2.00;0.68;;;17.90;99.90;;;;;;4959472;28;20047;-84
2023/08/27 12:16:09;;;;;;;1.75;0.47;;;18.20;99.90;;;;;;4937486;28;20053;-84
2023/08/27 12:19:02;;;;;;;3.13;1.65;;;17.70;99.90;;;;;;4933891;28;20069;-84
2023/08/27 12:22:08;;;;;;;5.60;2.22;;;17.60;99.90;;;;;;4926472;28;20047;-85
2023/08/27 12:24:45;;;;;;;4.93;2.40;;;17.70;99.90;;;;;;4954631;28;20046;-86
2023/08/27 12:31:02;;;;;;;14.73;4.03;;;17.90;99.90;;;;;;4973650;28;20121;-91
2023/08/27 12:34:20;;;;;;;10.15;3.45;;;16.70;99.90;;;;;;4927219;29;20095;-93
2023/08/27 12:41:35;;;;;;;4.07;2.92;;;17.10;99.90;;;;;;4952414;28;20039;-92
2023/08/27 12:44:09;;;;;;;5.30;2.75;;;15.90;99.90;;;;;;4936938;28;20049;-89
2023/08/27 12:46:35;;;;;;;5.55;2.80;;;15.00;99.90;;;;;;4932641;28;20042;-89
2023/08/27 12:49:01;;;;;;;4.32;2.65;;;16.10;99.90;;;;;;4948102;28;20218;-90
2023/08/27 12:51:26;;;;;;;3.65;2.35;;;12.80;99.90;;;;;;4926859;28;20050;-86
2023/08/27 12:53:55;;;;;;;3.13;2.08;;;16.00;99.90;;;;;;4931804;29;20094;-89
2023/08/27 12:56:24;;;;;;;3.42;2.70;;;16.60;99.90;;;;;;4915916;28;20896;-87
2023/08/27 12:58:49;;;;;;;2.75;2.28;;;16.60;99.90;;;;;;4916325;29;20035;-87
2023/08/27 13:01:15;;;;;;;6.25;2.88;;;17.00;99.90;;;;;;4913104;28;20073;-88
2023/08/27 13:03:43;;;;;;;4.68;3.00;;;17.40;99.90;;;;;;4930720;28;20047;-89
2023/08/27 13:06:09;;;;;;;6.95;4.20;;;17.70;99.90;;;;;;4933963;29;20421;-86
2023/08/27 13:08:35;;;;;;;6.55;3.70;;;18.40;99.90;;;;;;4912801;28;20047;-87
2023/08/27 13:11:01;;;;;;;4.43;3.72;;;18.10;99.90;;;;;;4912113;29;20697;-86
2023/08/27 13:13:30;;;;;;;5.40;4.00;;;15.90;99.90;;;;;;4932321;28;20061;-87
2023/08/27 13:16:02;;;;;;;4.25;3.65;;;18.50;99.90;;;;;;4931769;28;20500;-87
2023/08/27 13:18:27;;;;;;;4.75;3.55;;;18.80;99.90;;;;;;4928727;28;20054;-86
2023/08/27 13:20:53;;;;;;;6.93;4.07;;;18.00;99.90;;;;;;4913119;29;20497;-86
2023/08/27 13:23:23;;;;;;;4.75;3.28;;;18.00;99.90;;;;;;4913503;28;20512;-83